Time,TemperatureF,DewpointF,PressureIn,WindDirection,WindDirectionDegrees,WindSpeedMPH,WindSpeedGustMPH,Humidity,HourlyPrecipIn,Conditions,Clouds,dailyrainin,SolarRadiationWatts/m^2,SoftwareType,DateUTC
2013-04-20 00:02:00,34.1,28.0,30.07,WNW,303,5.8,11.5,78,0.00,CLR,,0.00,0.0,WeatherDisplay:10.37,2013-04-20 05:02:00,
2013-04-20 00:07:00,34.1,27.6,30.07,WNW,302,6.1,9.2,77,0.00,CLR,,0.00,0.0,WeatherDisplay:10.37,2013-04-20 05:07:00,
2013-04-20 00:12:00,34.2,27.7,30.07,NW,307,7.3,10.4,77,0.00,CLR,,0.00,0.0,WeatherDisplay:10.37,2013-04-20 05:12:00,
2013-04-20 00:17:00,34.4,27.9,30.07,NW,310,6.4,11.5,77,0.00,CLR,,0.00,0.0,WeatherDisplay:10.37,2013-04-20 05:17:00,
2013-04-20 00:22:00,34.4,27.6,30.08,NW,310,4.0,5.0,76,0.00,CLR,,0.00,0.0,WeatherDisplay:10.37,2013-04-20 05:22:00,
2013-04-20 00:27:00,34.4,27.6,30.08,NW,304,3.9,5.0,76,0.00,CLR,,0.00,0.0,WeatherDisplay:10.37,2013-04-20 05:27:00,
2013-04-20 00:32:00,34.3,27.5,30.08,WNW,299,5.3,8.1,76,0.00,CLR,,0.00,0.0,WeatherDisplay:10.37,2013-04-20 05:32:00,
2013-04-20 00:37:00,34.2,27.1,30.08,WNW,301,5.7,6.9,75,0.00,CLR,,0.00,0.0,WeatherDisplay:10.37,2013-04-20 05:37:00,
2013-04-20 00:42:00,34.2,27.1,30.08,NW,315,6.7,11.5,75,0.00,CLR,,0.00,0.0,WeatherDisplay:10.37,2013-04-20 05:42:00,
2013-04-20 00:47:00,34.3,27.2,30.08,NW,316,5.4,6.9,75,0.00,CLR,,0.00,0.0,WeatherDisplay:10.37,2013-04-20 05:47:00,
2013-04-20 00:52:00,34.2,26.8,30.08,NW,313,11.0,14.0,74,0.00,CLR,,0.00,0.0,WeatherDisplay:10.37,2013-04-20 05:52:00,
2013-04-20 00:57:00,34.3,26.5,30.08,WNW,288,6.8,12.7,73,0.00,CLR,,0.00,0.0,WeatherDisplay:10.37,2013-04-20 05:57:00,
2013-04-20 01:02:00,34.3,26.5,30.09,NW,311,5.1,11.5,73,0.00,CLR,,0.00,0.0,WeatherDisplay:10.37,2013-04-20 06:02:00,
2013-04-20 01:07:00,34.2,26.4,30.09,NW,308,6.9,10.0,73,0.00,CLR,,0.00,0.0,WeatherDisplay:10.37,2013-04-20 06:07:00,
2013-04-20 01:12:00,34.1,26.3,30.09,WNW,299,4.8,8.1,73,0.00,CLR,,0.00,0.0,WeatherDisplay:10.37,2013-04-20 06:12:00,
2013-04-20 01:17:00,33.9,26.2,30.09,NW,310,6.8,10.4,73,0.00,CLR,,0.00,0.0,WeatherDisplay:10.37,2013-04-20 06:17:00,
2013-04-20 01:22:00,33.8,26.1,30.09,WNW,293,7.6,11.5,73,0.00,CLR,,0.00,0.0,WeatherDisplay:10.37,2013-04-20 06:22:00,
2013-04-20 01:27:00,33.9,26.2,30.09,WNW,294,6.3,11.5,73,0.00,CLR,,0.00,0.0,WeatherDisplay:10.37,2013-04-20 06:27:00,
2013-04-20 01:32:00,34.0,25.9,30.08,WNW,298,7.6,11.5,72,0.00,CLR,,0.00,0.0,WeatherDisplay:10.37,2013-04-20 06:32:00,
2013-04-20 01:37:00,34.0,25.9,30.08,WNW,302,5.6,11.5,72,0.00,CLR,,0.00,0.0,WeatherDisplay:10.37,2013-04-20 06:37:00,
2013-04-20 01:42:00,34.0,25.6,30.09,WNW,302,5.0,6.9,71,0.00,CLR,,0.00,0.0,WeatherDisplay:10.37,2013-04-20 06:42:00,
2013-04-20 01:47:00,34.0,25.6,30.09,NNW,329,4.4,6.0,71,0.00,CLR,,0.00,0.0,WeatherDisplay:10.37,2013-04-20 06:47:00,
2013-04-20 01:52:00,33.9,25.8,30.08,WNW,297,4.4,5.8,72,0.00,CLR,,0.00,0.0,WeatherDisplay:10.37,2013-04-20 06:52:00,
2013-04-20 01:57:00,33.8,25.7,30.09,WNW,292,6.4,9.2,72,0.00,CLR,,0.00,0.0,WeatherDisplay:10.37,2013-04-20 06:57:00,
2013-04-20 02:02:00,33.6,25.9,30.09,WNW,292,4.9,7.0,73,0.00,CLR,,0.00,0.0,WeatherDisplay:10.37,2013-04-20 07:02:00,
2013-04-20 02:07:00,33.5,25.8,30.09,WNW,291,3.7,5.0,73,0.00,CLR,,0.00,0.0,WeatherDisplay:10.37,2013-04-20 07:07:00,
2013-04-20 02:12:00,33.3,25.6,30.09,WNW,291,2.5,4.6,73,0.00,CLR,,0.00,0.0,WeatherDisplay:10.37,2013-04-20 07:12:00,
2013-04-20 02:17:00,33.2,25.8,30.09,WNW,291,3.0,5.0,74,0.00,CLR,,0.00,0.0,WeatherDisplay:10.37,2013-04-20 07:17:00,
2013-04-20 02:22:00,33.0,25.6,30.09,WNW,291,3.3,5.0,74,0.00,CLR,,0.00,0.0,WeatherDisplay:10.37,2013-04-20 07:22:00,
2013-04-20 02:27:00,32.8,25.7,30.09,WNW,288,5.0,6.0,75,0.00,CLR,,0.00,0.0,WeatherDisplay:10.37,2013-04-20 07:27:00,
2013-04-20 02:32:00,32.7,25.6,30.10,WNW,288,5.0,6.0,75,0.00,CLR,,0.00,0.0,WeatherDisplay:10.37,2013-04-20 07:32:00,
2013-04-20 02:37:00,32.6,25.6,30.10,WNW,288,4.3,5.0,75,0.00,CLR,,0.00,0.0,WeatherDisplay:10.37,2013-04-20 07:37:00,
2013-04-20 02:42:00,32.6,25.9,30.10,WNW,288,4.3,5.8,76,0.00,CLR,,0.00,0.0,WeatherDisplay:10.37,2013-04-20 07:42:00,
2013-04-20 02:47:00,32.5,25.8,30.10,WNW,292,5.2,6.9,76,0.00,CLR,,0.00,0.0,WeatherDisplay:10.37,2013-04-20 07:47:00,
2013-04-20 02:52:00,32.4,25.7,30.10,WNW,292,3.7,4.6,76,0.00,CLR,,0.00,0.0,WeatherDisplay:10.37,2013-04-20 07:52:00,
2013-04-20 02:57:00,32.3,25.6,30.10,WNW,291,3.0,4.0,76,0.00,CLR,,0.00,0.0,WeatherDisplay:10.37,2013-04-20 07:57:00,
2013-04-20 03:02:00,32.2,25.8,30.10,WNW,292,3.1,4.0,77,0.00,CLR,,0.00,0.0,WeatherDisplay:10.37,2013-04-20 08:02:00,
2013-04-20 03:07:00,32.1,25.7,30.10,WNW,292,3.7,4.6,77,0.00,CLR,,0.00,0.0,WeatherDisplay:10.37,2013-04-20 08:07:00,
2013-04-20 03:12:00,32.0,25.6,30.10,WNW,291,2.3,3.5,77,0.00,CLR,,0.00,0.0,WeatherDisplay:10.37,2013-04-20 08:12:00,
2013-04-20 03:17:00,31.9,25.5,30.11,WNW,291,3.8,5.8,77,0.00,CLR,,0.00,0.0,WeatherDisplay:10.37,2013-04-20 08:17:00,
2013-04-20 03:22:00,31.9,25.5,30.11,WNW,291,3.8,5.0,77,0.00,CLR,,0.00,0.0,WeatherDisplay:10.37,2013-04-20 08:22:00,
2013-04-20 03:27:00,31.8,25.4,30.11,WNW,291,2.7,4.0,77,0.00,CLR,,0.00,0.0,WeatherDisplay:10.37,2013-04-20 08:27:00,
2013-04-20 03:32:00,31.8,25.4,30.12,WNW,291,3.4,5.0,77,0.00,CLR,,0.00,0.0,WeatherDisplay:10.37,2013-04-20 08:32:00,
2013-04-20 03:37:00,31.7,25.3,30.12,WNW,291,3.0,4.0,77,0.00,CLR,,0.00,0.0,WeatherDisplay:10.37,2013-04-20 08:37:00,
2013-04-20 03:42:00,31.6,25.2,30.12,WNW,291,2.3,3.5,77,0.00,CLR,,0.00,0.0,WeatherDisplay:10.37,2013-04-20 08:42:00,
2013-04-20 03:47:00,31.6,25.5,30.12,WNW,291,2.2,3.5,78,0.00,CLR,,0.00,0.0,WeatherDisplay:10.37,2013-04-20 08:47:00,
2013-04-20 03:52:00,31.5,25.4,30.12,WNW,291,1.8,3.5,78,0.00,CLR,,0.00,0.0,WeatherDisplay:10.37,2013-04-20 08:52:00,
2013-04-20 03:57:00,31.4,25.3,30.12,WNW,291,1.5,2.3,78,0.00,CLR,,0.00,0.0,WeatherDisplay:10.37,2013-04-20 08:57:00,
2013-04-20 04:02:00,31.4,25.3,30.13,WNW,291,1.1,2.3,78,0.00,CLR,,0.00,0.0,WeatherDisplay:10.37,2013-04-20 09:02:00,
2013-04-20 04:07:00,31.3,25.2,30.13,WNW,291,0.9,2.3,78,0.00,CLR,,0.00,0.0,WeatherDisplay:10.37,2013-04-20 09:07:00,
2013-04-20 04:12:00,31.1,25.0,30.13,WNW,291,1.2,2.3,78,0.00,CLR,,0.00,0.0,WeatherDisplay:10.37,2013-04-20 09:12:00,
2013-04-20 04:17:00,31.0,24.9,30.13,WNW,291,1.3,2.3,78,0.00,CLR,,0.00,0.0,WeatherDisplay:10.37,2013-04-20 09:17:00,
2013-04-20 04:22:00,30.8,24.7,30.13,WNW,291,2.4,3.5,78,0.00,CLR,,0.00,0.0,WeatherDisplay:10.37,2013-04-20 09:22:00,
2013-04-20 04:27:00,30.7,25.0,30.14,WNW,291,3.2,4.0,79,0.00,CLR,,0.00,0.0,WeatherDisplay:10.37,2013-04-20 09:27:00,
2013-04-20 04:32:00,30.6,24.9,30.14,WNW,291,2.9,4.6,79,0.00,CLR,,0.00,0.0,WeatherDisplay:10.37,2013-04-20 09:32:00,
2013-04-20 04:37:00,30.6,24.9,30.14,WNW,291,2.9,3.5,79,0.00,CLR,,0.00,0.0,WeatherDisplay:10.37,2013-04-20 09:37:00,
2013-04-20 04:42:00,30.6,25.2,30.14,WNW,291,2.6,3.5,80,0.00,CLR,,0.00,0.0,WeatherDisplay:10.37,2013-04-20 09:42:00,
2013-04-20 04:47:00,30.6,25.2,30.14,WNW,291,2.1,3.5,80,0.00,CLR,,0.00,0.0,WeatherDisplay:10.37,2013-04-20 09:47:00,
2013-04-20 04:52:00,30.6,25.2,30.15,WNW,291,2.9,4.0,80,0.00,CLR,,0.00,0.0,WeatherDisplay:10.37,2013-04-20 09:52:00,
2013-04-20 04:57:00,30.5,25.1,30.15,WNW,291,2.4,3.5,80,0.00,CLR,,0.00,0.0,WeatherDisplay:10.37,2013-04-20 09:57:00,
2013-04-20 05:02:00,30.5,25.1,30.15,WNW,291,2.2,3.5,80,0.00,CLR,,0.00,0.0,WeatherDisplay:10.37,2013-04-20 10:02:00,
2013-04-20 05:07:00,30.4,25.3,30.15,WNW,291,2.8,4.0,81,0.00,CLR,,0.00,0.0,WeatherDisplay:10.37,2013-04-20 10:07:00,
2013-04-20 05:12:00,30.3,25.2,30.15,WNW,291,4.1,5.0,81,0.00,CLR,,0.00,0.0,WeatherDisplay:10.37,2013-04-20 10:12:00,
2013-04-20 05:17:00,30.2,25.1,30.15,WNW,291,2.7,3.5,81,0.00,CLR,,0.00,0.0,WeatherDisplay:10.37,2013-04-20 10:17:00,
2013-04-20 05:22:00,30.2,25.1,30.15,WNW,291,3.8,5.0,81,0.00,CLR,,0.00,0.0,WeatherDisplay:10.37,2013-04-20 10:22:00,
2013-04-20 05:27:00,30.2,25.1,30.15,WNW,291,3.9,5.0,81,0.00,CLR,,0.00,0.0,WeatherDisplay:10.37,2013-04-20 10:27:00,
2013-04-20 05:32:00,30.3,25.5,30.15,WNW,291,3.4,5.0,82,0.00,CLR,,0.00,0.0,WeatherDisplay:10.37,2013-04-20 10:32:00,
2013-04-20 05:37:00,30.3,25.5,30.16,WNW,291,3.5,4.6,82,0.00,CLR,,0.00,0.0,WeatherDisplay:10.37,2013-04-20 10:37:00,
2013-04-20 05:42:00,30.3,25.5,30.16,WNW,291,3.4,4.0,82,0.00,CLR,,0.00,0.0,WeatherDisplay:10.37,2013-04-20 10:42:00,
2013-04-20 05:47:00,30.3,25.5,30.16,WNW,291,3.2,4.6,82,0.00,CLR,,0.00,0.0,WeatherDisplay:10.37,2013-04-20 10:47:00,
2013-04-20 05:52:00,30.2,25.4,30.16,WNW,291,3.9,5.0,82,0.00,CLR,,0.00,0.0,WeatherDisplay:10.37,2013-04-20 10:52:00,
2013-04-20 05:57:00,30.2,25.4,30.16,WNW,291,3.0,3.5,82,0.00,CLR,,0.00,0.0,WeatherDisplay:10.37,2013-04-20 10:57:00,
2013-04-20 06:02:00,30.2,25.4,30.16,WNW,291,0.4,1.2,82,0.00,OVC,,0.00,0.0,WeatherDisplay:10.37,2013-04-20 11:02:00,
2013-04-20 06:07:00,30.1,25.3,30.17,WNW,291,0.3,1.2,82,0.00,OVC,,0.00,0.0,WeatherDisplay:10.37,2013-04-20 11:07:00,
2013-04-20 06:12:00,30.1,25.3,30.17,WNW,291,0.0,0.0,82,0.00,OVC,,0.00,0.0,WeatherDisplay:10.37,2013-04-20 11:12:00,
2013-04-20 06:17:00,30.0,25.2,30.17,WNW,291,2.0,3.5,82,0.00,OVC,,0.00,6.2,WeatherDisplay:10.37,2013-04-20 11:17:00,
2013-04-20 06:22:00,30.0,25.2,30.17,WNW,291,1.9,3.5,82,0.00,OVC,,0.00,11.2,WeatherDisplay:10.37,2013-04-20 11:22:00,
2013-04-20 06:27:00,29.9,25.1,30.17,WNW,291,0.8,2.3,82,0.00,OVC,,0.00,14.9,WeatherDisplay:10.37,2013-04-20 11:27:00,
2013-04-20 06:32:00,29.8,25.0,30.17,WNW,291,0.0,0.0,82,0.00,OVC,,0.00,19.8,WeatherDisplay:10.37,2013-04-20 11:32:00,
2013-04-20 06:37:00,29.8,25.3,30.18,WNW,291,0.9,2.3,83,0.00,OVC,,0.00,31.0,WeatherDisplay:10.37,2013-04-20 11:37:00,
2013-04-20 06:42:00,29.8,25.3,30.18,WNW,291,1.8,3.0,83,0.00,OVC,,0.00,40.9,WeatherDisplay:10.37,2013-04-20 11:42:00,
2013-04-20 06:47:00,29.9,25.4,30.18,WNW,291,1.5,3.0,83,0.00,OVC,,0.00,52.1,WeatherDisplay:10.37,2013-04-20 11:47:00,
2013-04-20 06:52:00,29.9,25.4,30.19,WNW,291,1.2,2.3,83,0.00,OVC,,0.00,67.0,WeatherDisplay:10.37,2013-04-20 11:52:00,
2013-04-20 06:57:00,29.9,25.4,30.20,WNW,291,0.9,2.0,83,0.00,BKN,,0.00,85.6,WeatherDisplay:10.37,2013-04-20 11:57:00,
2013-04-20 07:02:00,30.0,25.5,30.20,WNW,291,2.0,3.5,83,0.00,BKN,,0.00,104.2,WeatherDisplay:10.37,2013-04-20 12:02:00,
2013-04-20 07:07:00,30.1,25.8,30.21,WNW,291,1.3,2.3,84,0.00,SCT,,0.00,124.0,WeatherDisplay:10.37,2013-04-20 12:07:00,
2013-04-20 07:12:00,30.2,25.9,30.22,WNW,291,0.5,1.2,84,0.00,SCT,,0.00,146.3,WeatherDisplay:10.37,2013-04-20 12:12:00,
2013-04-20 07:17:00,30.5,26.2,30.22,WNW,291,1.0,2.3,84,0.00,FEW,,0.00,174.8,WeatherDisplay:10.37,2013-04-20 12:17:00,
2013-04-20 07:22:00,30.7,26.4,30.22,WNW,291,3.0,15.0,84,0.00,FEW,,0.00,200.9,WeatherDisplay:10.37,2013-04-20 12:22:00,
2013-04-20 07:27:00,30.9,26.6,30.22,WNW,291,2.9,4.0,84,0.00,FEW,,0.00,222.0,WeatherDisplay:10.37,2013-04-20 12:27:00,
2013-04-20 07:32:00,31.1,26.8,30.22,WNW,291,3.4,4.0,84,0.00,FEW,,0.00,246.8,WeatherDisplay:10.37,2013-04-20 12:32:00,
2013-04-20 07:37:00,31.4,27.1,30.22,WNW,296,4.6,9.0,84,0.00,CLR,,0.00,272.8,WeatherDisplay:10.37,2013-04-20 12:37:00,
2013-04-20 07:42:00,31.5,27.2,30.23,WNW,296,3.9,5.8,84,0.00,CLR,,0.00,293.9,WeatherDisplay:10.37,2013-04-20 12:42:00,
2013-04-20 07:47:00,31.8,27.5,30.23,WNW,294,3.4,5.8,84,0.00,CLR,,0.00,316.2,WeatherDisplay:10.37,2013-04-20 12:47:00,
2013-04-20 07:52:00,32.1,27.8,30.23,WNW,294,4.4,6.0,84,0.00,CLR,,0.00,336.0,WeatherDisplay:10.37,2013-04-20 12:52:00,
2013-04-20 07:57:00,32.4,28.1,30.24,West,276,4.3,5.0,84,0.00,CLR,,0.00,362.1,WeatherDisplay:10.37,2013-04-20 12:57:00,
2013-04-20 08:02:00,32.6,28.0,30.24,West,281,6.1,10.4,83,0.00,CLR,,0.00,383.2,WeatherDisplay:10.37,2013-04-20 13:02:00,
2013-04-20 08:07:00,32.6,28.0,30.24,WNW,288,6.6,10.0,83,0.00,CLR,,0.00,403.0,WeatherDisplay:10.37,2013-04-20 13:07:00,
2013-04-20 08:12:00,32.7,27.8,30.24,WNW,292,6.4,10.4,82,0.00,CLR,,0.00,427.8,WeatherDisplay:10.37,2013-04-20 13:12:00,
2013-04-20 08:17:00,32.7,27.8,30.24,WNW,301,4.8,15.0,82,0.00,CLR,,0.00,448.9,WeatherDisplay:10.37,2013-04-20 13:17:00,
2013-04-20 08:22:00,32.9,28.0,30.25,WNW,286,4.5,5.8,82,0.00,CLR,,0.00,468.7,WeatherDisplay:10.37,2013-04-20 13:22:00,
2013-04-20 08:27:00,33.2,28.0,30.25,WNW,294,5.7,8.1,81,0.00,CLR,,0.00,488.6,WeatherDisplay:10.37,2013-04-20 13:27:00,
2013-04-20 08:32:00,33.2,28.0,30.25,WNW,294,3.4,5.0,81,0.00,CLR,,0.00,509.6,WeatherDisplay:10.37,2013-04-20 13:32:00,
2013-04-20 08:37:00,33.6,28.4,30.25,West,259,1.9,3.5,81,0.00,CLR,,0.00,532.0,WeatherDisplay:10.37,2013-04-20 13:37:00,
2013-04-20 08:42:00,34.1,28.6,30.25,WNW,285,4.8,6.0,80,0.00,CLR,,0.00,553.0,WeatherDisplay:10.37,2013-04-20 13:42:00,
2013-04-20 08:47:00,34.1,28.6,30.26,WNW,290,4.9,15.0,80,0.00,CLR,,0.00,577.8,WeatherDisplay:10.37,2013-04-20 13:47:00,
2013-04-20 08:52:00,34.3,28.8,30.26,West,279,4.2,6.9,80,0.00,CLR,,0.00,598.9,WeatherDisplay:10.37,2013-04-20 13:52:00,
2013-04-20 08:57:00,34.4,28.6,30.26,West,274,4.9,6.0,79,0.00,CLR,,0.00,615.0,WeatherDisplay:10.37,2013-04-20 13:57:00,
2013-04-20 09:02:00,34.8,29.0,30.27,WSW,246,3.4,4.6,79,0.00,CLR,,0.00,638.6,WeatherDisplay:10.37,2013-04-20 14:02:00,
2013-04-20 09:07:00,34.9,28.7,30.27,NW,304,3.4,7.0,78,0.00,CLR,,0.00,653.5,WeatherDisplay:10.37,2013-04-20 14:07:00,
2013-04-20 09:12:00,35.1,28.9,30.27,WSW,240,4.4,15.0,78,0.00,CLR,,0.00,678.3,WeatherDisplay:10.37,2013-04-20 14:12:00,
2013-04-20 09:17:00,35.4,29.2,30.27,West,275,2.9,5.8,78,0.00,CLR,,0.00,695.6,WeatherDisplay:10.37,2013-04-20 14:17:00,
2013-04-20 09:23:00,35.9,29.7,30.27,West,271,2.2,6.9,78,0.00,CLR,,0.00,716.7,WeatherDisplay:10.37,2013-04-20 14:23:00,
2013-04-20 09:28:00,36.2,29.4,30.27,WSW,246,2.4,4.0,76,0.00,CLR,,0.00,736.6,WeatherDisplay:10.37,2013-04-20 14:28:00,
2013-04-20 09:33:00,36.2,29.0,30.27,WNW,291,4.7,15.0,75,0.00,CLR,,0.00,756.4,WeatherDisplay:10.37,2013-04-20 14:33:00,
2013-04-20 09:38:00,36.4,29.2,30.28,WNW,283,4.7,15.0,75,0.00,CLR,,0.00,776.2,WeatherDisplay:10.37,2013-04-20 14:38:00,
2013-04-20 09:43:00,36.7,29.5,30.27,West,259,3.8,6.9,75,0.00,CLR,,0.00,791.1,WeatherDisplay:10.37,2013-04-20 14:43:00,
2013-04-20 09:48:00,37.1,29.6,30.28,WNW,292,5.3,6.0,74,0.00,CLR,,0.00,808.5,WeatherDisplay:10.37,2013-04-20 14:48:00,
2013-04-20 09:53:00,37.3,29.8,30.28,WNW,292,5.8,8.1,74,0.00,CLR,,0.00,828.3,WeatherDisplay:10.37,2013-04-20 14:53:00,
2013-04-20 09:58:00,37.5,30.0,30.28,WNW,290,4.8,9.2,74,0.00,CLR,,0.00,848.2,WeatherDisplay:10.37,2013-04-20 14:58:00,
2013-04-20 10:03:00,37.8,29.9,30.29,WNW,288,5.6,10.4,73,0.00,CLR,,0.00,865.5,WeatherDisplay:10.37,2013-04-20 15:03:00,
2013-04-20 10:08:00,38.2,30.3,30.29,West,263,3.5,5.8,73,0.00,CLR,,0.00,882.9,WeatherDisplay:10.37,2013-04-20 15:08:00,
2013-04-20 10:13:00,38.7,30.1,30.29,West,269,3.3,15.0,71,0.00,CLR,,0.00,902.7,WeatherDisplay:10.37,2013-04-20 15:13:00,
2013-04-20 10:18:00,39.4,30.8,30.29,West,271,7.1,10.4,71,0.00,CLR,,0.00,932.5,WeatherDisplay:10.37,2013-04-20 15:18:00,
2013-04-20 10:23:00,39.6,30.3,30.29,WSW,253,3.1,4.0,69,0.00,CLR,,0.00,967.2,WeatherDisplay:10.37,2013-04-20 15:23:00,
2013-04-20 10:28:00,40.0,30.3,30.29,NNW,338,4.1,6.0,68,0.00,CLR,,0.00,1024.2,WeatherDisplay:10.37,2013-04-20 15:28:00,
2013-04-20 10:33:00,40.2,29.7,30.29,WNW,288,5.7,7.0,66,0.00,CLR,,0.00,1044.1,WeatherDisplay:10.37,2013-04-20 15:33:00,
2013-04-20 10:38:00,40.2,29.7,30.29,WNW,296,4.6,15.0,66,0.00,CLR,,0.00,1018.0,WeatherDisplay:10.37,2013-04-20 15:38:00,
2013-04-20 10:43:00,40.0,28.8,30.30,West,281,5.1,9.2,64,0.00,CLR,,0.00,1127.2,WeatherDisplay:10.37,2013-04-20 15:43:00,
2013-04-20 10:48:00,40.2,29.4,30.30,West,263,6.3,9.2,65,0.00,CLR,,0.00,1075.1,WeatherDisplay:10.37,2013-04-20 15:48:00,
2013-04-20 10:53:00,41.0,30.1,30.30,WSW,256,8.6,11.5,65,0.00,CLR,,0.00,1059.0,WeatherDisplay:10.37,2013-04-20 15:53:00,
2013-04-20 10:58:00,41.3,29.3,30.30,WNW,283,6.1,9.2,62,0.00,CLR,,0.00,586.5,WeatherDisplay:10.37,2013-04-20 15:58:00,
2013-04-20 11:03:00,41.2,28.8,30.30,West,269,2.5,5.0,61,0.00,CLR,,0.00,1072.6,WeatherDisplay:10.37,2013-04-20 16:03:00,
2013-04-20 11:08:00,41.4,28.9,30.30,West,280,9.2,12.0,61,0.00,CLR,,0.00,1078.8,WeatherDisplay:10.37,2013-04-20 16:08:00,
2013-04-20 11:13:00,41.3,28.9,30.30,NNE,18,2.5,4.0,61,0.00,CLR,,0.00,1122.2,WeatherDisplay:10.37,2013-04-20 16:13:00,
2013-04-20 11:18:00,41.4,28.5,30.30,North,355,5.7,11.5,60,0.00,CLR,,0.00,1297.0,WeatherDisplay:10.37,2013-04-20 16:18:00,
2013-04-20 11:23:00,41.4,28.5,30.30,WNW,284,4.9,6.0,60,0.00,CLR,,0.00,200.9,WeatherDisplay:10.37,2013-04-20 16:23:00,
2013-04-20 11:28:00,41.1,27.9,30.30,WNW,282,6.1,11.5,59,0.00,CLR,,0.00,1127.2,WeatherDisplay:10.37,2013-04-20 16:28:00,
2013-04-20 11:33:00,41.1,27.9,30.30,NW,321,4.8,9.2,59,0.00,CLR,,0.00,1127.2,WeatherDisplay:10.37,2013-04-20 16:33:00,
2013-04-20 11:38:00,41.3,28.4,30.30,North,5,2.8,5.8,60,0.00,CLR,,0.00,1130.9,WeatherDisplay:10.37,2013-04-20 16:38:00,
2013-04-20 11:43:00,41.6,26.6,30.30,WNW,300,5.8,9.2,55,0.00,CLR,,0.00,1150.7,WeatherDisplay:10.37,2013-04-20 16:43:00,
2013-04-20 11:48:00,41.7,27.1,30.30,West,264,0.5,3.5,56,0.00,CLR,,0.00,1150.7,WeatherDisplay:10.37,2013-04-20 16:48:00,
2013-04-20 11:53:00,43.0,28.8,30.30,West,264,1.4,15.0,57,0.00,CLR,,0.00,1164.4,WeatherDisplay:10.37,2013-04-20 16:53:00,
2013-04-20 11:58:00,43.8,29.5,30.30,WSW,249,5.3,9.2,57,0.00,CLR,,0.00,1205.3,WeatherDisplay:10.37,2013-04-20 16:58:00,
2013-04-20 12:03:00,43.4,28.7,30.30,SW,222,4.6,10.0,56,0.00,CLR,,0.00,1205.3,WeatherDisplay:10.37,2013-04-20 17:03:00,
2013-04-20 12:08:00,43.0,27.9,30.30,West,264,4.4,10.4,55,0.00,CLR,,0.00,1174.3,WeatherDisplay:10.37,2013-04-20 17:08:00,
2013-04-20 12:13:00,42.9,27.4,30.30,West,275,4.5,15.0,54,0.00,CLR,,0.00,1181.7,WeatherDisplay:10.37,2013-04-20 17:13:00,
2013-04-20 12:18:00,43.7,28.1,30.30,West,263,6.9,11.5,54,0.00,CLR,,0.00,1196.6,WeatherDisplay:10.37,2013-04-20 17:18:00,
2013-04-20 12:23:00,44.0,28.0,30.30,West,269,4.9,6.9,53,0.00,CLR,,0.00,1185.4,WeatherDisplay:10.37,2013-04-20 17:23:00,
2013-04-20 12:28:00,43.9,28.3,30.30,West,270,3.9,5.8,54,0.00,CLR,,0.00,1181.7,WeatherDisplay:10.37,2013-04-20 17:28:00,
2013-04-20 12:33:00,44.1,28.0,30.30,NW,306,5.7,9.2,53,0.00,CLR,,0.00,1176.8,WeatherDisplay:10.37,2013-04-20 17:33:00,
2013-04-20 12:38:00,44.5,28.0,30.30,West,277,5.9,9.2,52,0.00,CLR,,0.00,1199.1,WeatherDisplay:10.37,2013-04-20 17:38:00,
2013-04-20 12:43:00,44.4,27.9,30.30,West,274,0.5,2.3,52,0.00,CLR,,0.00,1194.1,WeatherDisplay:10.37,2013-04-20 17:43:00,
2013-04-20 12:48:00,45.0,28.4,30.30,WNW,292,0.9,15.0,52,0.00,CLR,,0.00,1192.9,WeatherDisplay:10.37,2013-04-20 17:48:00,
2013-04-20 12:53:00,45.2,28.6,30.30,WNW,302,6.1,15.0,52,0.00,CLR,,0.00,1201.6,WeatherDisplay:10.37,2013-04-20 17:53:00,
2013-04-20 12:58:00,45.2,28.1,30.30,West,277,6.3,10.4,51,0.00,CLR,,0.00,1205.3,WeatherDisplay:10.37,2013-04-20 17:58:00,
2013-04-20 13:03:00,45.0,27.5,30.30,SW,224,2.5,6.9,50,0.00,CLR,,0.00,1199.1,WeatherDisplay:10.37,2013-04-20 18:03:00,
2013-04-20 13:08:00,45.0,27.9,30.30,West,263,7.6,11.5,51,0.00,CLR,,0.00,1190.4,WeatherDisplay:10.37,2013-04-20 18:08:00,
2013-04-20 13:13:00,44.7,27.2,30.30,SSW,209,3.2,6.9,50,0.00,CLR,,0.00,1222.6,WeatherDisplay:10.37,2013-04-20 18:13:00,
2013-04-20 13:18:00,46.1,29.9,30.30,SW,215,3.0,7.0,53,0.00,CLR,,0.00,1199.1,WeatherDisplay:10.37,2013-04-20 18:18:00,
2013-04-20 13:23:00,46.9,29.2,30.29,NW,323,4.3,5.0,50,0.00,CLR,,0.00,1187.9,WeatherDisplay:10.37,2013-04-20 18:23:00,
2013-04-20 13:28:00,46.8,29.6,30.30,WNW,300,7.5,11.5,51,0.00,CLR,,0.00,1210.2,WeatherDisplay:10.37,2013-04-20 18:28:00,
2013-04-20 13:33:00,46.3,28.7,30.29,West,277,6.9,10.4,50,0.00,CLR,,0.00,1187.9,WeatherDisplay:10.37,2013-04-20 18:33:00,
2013-04-20 13:38:00,46.0,28.4,30.29,SSW,211,3.2,4.0,50,0.00,CLR,,0.00,1173.0,WeatherDisplay:10.37,2013-04-20 18:38:00,
2013-04-20 13:43:00,46.4,28.3,30.29,SSW,211,1.1,16.0,49,0.00,CLR,,0.00,1164.4,WeatherDisplay:10.37,2013-04-20 18:43:00,
2013-04-20 13:48:00,47.0,28.3,30.29,WSW,250,2.1,16.0,48,0.00,CLR,,0.00,1159.4,WeatherDisplay:10.37,2013-04-20 18:48:00,
2013-04-20 13:53:00,47.1,27.9,30.29,North,5,2.6,4.0,47,0.00,CLR,,0.00,1165.6,WeatherDisplay:10.37,2013-04-20 18:53:00,
2013-04-20 13:58:00,47.7,30.4,30.29,NNW,331,1.8,5.8,51,0.00,CLR,,0.00,1168.1,WeatherDisplay:10.37,2013-04-20 18:58:00,
2013-04-20 14:03:00,48.7,30.9,30.29,West,270,9.2,12.0,50,0.00,CLR,,0.00,1148.2,WeatherDisplay:10.37,2013-04-20 19:03:00,
2013-04-20 14:08:00,47.8,29.0,30.29,WSW,239,4.3,6.9,48,0.00,CLR,,0.00,1150.7,WeatherDisplay:10.37,2013-04-20 19:08:00,
2013-04-20 14:13:00,47.5,29.3,30.29,WSW,250,7.2,12.7,49,0.00,CLR,,0.00,1156.9,WeatherDisplay:10.37,2013-04-20 19:13:00,
2013-04-20 14:18:00,47.4,29.2,30.29,WSW,238,2.2,4.0,49,0.00,CLR,,0.00,1122.2,WeatherDisplay:10.37,2013-04-20 19:18:00,
2013-04-20 14:23:00,47.4,28.7,30.29,SW,227,4.9,9.2,48,0.00,CLR,,0.00,1107.3,WeatherDisplay:10.37,2013-04-20 19:23:00,
2013-04-20 14:28:00,47.3,28.6,30.29,WSW,252,5.3,9.2,48,0.00,CLR,,0.00,1107.3,WeatherDisplay:10.37,2013-04-20 19:28:00,
2013-04-20 14:33:00,47.1,28.4,30.29,WSW,258,3.8,7.0,48,0.00,CLR,,0.00,1087.5,WeatherDisplay:10.37,2013-04-20 19:33:00,
2013-04-20 14:38:00,48.0,28.7,30.29,WNW,286,8.2,11.5,47,0.00,CLR,,0.00,1093.7,WeatherDisplay:10.37,2013-04-20 19:38:00,
2013-04-20 14:43:00,48.2,28.9,30.29,West,259,6.1,10.4,47,0.00,CLR,,0.00,1070.1,WeatherDisplay:10.37,2013-04-20 19:43:00,
2013-04-20 14:48:00,48.1,28.3,30.28,West,260,8.3,11.5,46,0.00,CLR,,0.00,1046.6,WeatherDisplay:10.37,2013-04-20 19:48:00,
2013-04-20 14:53:00,48.1,28.3,30.29,SW,232,4.2,6.9,46,0.00,CLR,,0.00,1041.6,WeatherDisplay:10.37,2013-04-20 19:53:00,
2013-04-20 14:58:00,48.1,27.2,30.28,WSW,245,3.4,6.0,44,0.00,CLR,,0.00,1029.2,WeatherDisplay:10.37,2013-04-20 19:58:00,
2013-04-20 15:03:00,48.5,29.2,30.28,SSW,211,3.8,10.4,47,0.00,CLR,,0.00,1013.1,WeatherDisplay:10.37,2013-04-20 20:03:00,
2013-04-20 15:08:00,48.3,28.5,30.29,WNW,288,2.2,4.6,46,0.00,CLR,,0.00,1004.4,WeatherDisplay:10.37,2013-04-20 20:08:00,
2013-04-20 15:13:00,49.2,29.3,30.28,WNW,294,3.5,4.6,46,0.00,CLR,,0.00,985.8,WeatherDisplay:10.37,2013-04-20 20:13:00,
2013-04-20 15:18:00,49.9,29.4,30.28,WNW,299,1.0,2.3,45,0.00,CLR,,0.00,974.6,WeatherDisplay:10.37,2013-04-20 20:18:00,
2013-04-20 15:23:00,50.0,29.5,30.28,West,269,5.6,10.4,45,0.00,CLR,,0.00,961.0,WeatherDisplay:10.37,2013-04-20 20:23:00,
2013-04-20 15:28:00,49.8,29.8,30.28,WNW,295,2.8,4.0,46,0.00,CLR,,0.00,943.6,WeatherDisplay:10.37,2013-04-20 20:28:00,
2013-04-20 15:33:00,50.0,30.0,30.28,WNW,286,2.3,4.6,46,0.00,CLR,,0.00,926.3,WeatherDisplay:10.37,2013-04-20 20:33:00,
2013-04-20 15:38:00,50.1,29.0,30.28,West,277,3.7,5.0,44,0.00,CLR,,0.00,972.2,WeatherDisplay:10.37,2013-04-20 20:38:00,
2013-04-20 15:43:00,49.8,29.3,30.28,North,351,4.4,5.8,45,0.00,CLR,,0.00,248.0,WeatherDisplay:10.37,2013-04-20 20:43:00,
2013-04-20 15:48:00,49.7,29.7,30.28,NNE,17,5.0,9.2,46,0.00,CLR,,0.00,911.4,WeatherDisplay:10.37,2013-04-20 20:48:00,
2013-04-20 15:53:00,50.5,31.0,30.28,NNE,15,3.2,6.0,47,0.00,CLR,,0.00,920.1,WeatherDisplay:10.37,2013-04-20 20:53:00,
2013-04-20 15:58:00,50.3,29.2,30.27,NNE,30,2.9,4.6,44,0.00,CLR,,0.00,868.0,WeatherDisplay:10.37,2013-04-20 20:58:00,
2013-04-20 16:03:00,50.3,30.3,30.28,NNW,334,4.0,6.0,46,0.00,CLR,,0.00,876.7,WeatherDisplay:10.37,2013-04-20 21:03:00,
2013-04-20 16:08:00,50.3,29.7,30.28,North,350,3.4,5.0,45,0.00,CLR,,0.00,250.5,WeatherDisplay:10.37,2013-04-20 21:08:00,
2013-04-20 16:13:00,49.5,28.5,30.28,NE,47,0.9,4.6,44,0.00,CLR,,0.00,192.2,WeatherDisplay:10.37,2013-04-20 21:13:00,
2013-04-20 16:18:00,49.0,29.6,30.27,North,360,2.3,4.0,47,0.00,SCT,,0.00,828.3,WeatherDisplay:10.37,2013-04-20 21:18:00,
2013-04-20 16:23:00,49.2,29.3,30.27,NNE,16,3.4,6.9,46,0.00,CLR,,0.00,782.4,WeatherDisplay:10.37,2013-04-20 21:23:00,
2013-04-20 16:28:00,49.6,29.6,30.27,NNW,333,4.8,7.0,46,0.00,CLR,,0.00,727.9,WeatherDisplay:10.37,2013-04-20 21:28:00,
2013-04-20 16:33:00,50.0,30.0,30.27,NE,44,1.3,2.0,46,0.00,CLR,,0.00,699.4,WeatherDisplay:10.37,2013-04-20 21:33:00,
2013-04-20 16:38:00,50.2,29.1,30.27,NE,45,4.4,6.0,44,0.00,CLR,,0.00,708.0,WeatherDisplay:10.37,2013-04-20 21:38:00,
2013-04-20 16:43:00,49.6,29.1,30.27,NE,41,4.1,5.0,45,0.00,CLR,,0.00,652.2,WeatherDisplay:10.37,2013-04-20 21:43:00,
2013-04-20 16:48:00,49.8,28.7,30.27,NNE,14,2.2,3.5,44,0.00,CLR,,0.00,652.2,WeatherDisplay:10.37,2013-04-20 21:48:00,
2013-04-20 16:53:00,50.2,29.1,30.27,NNE,15,2.1,3.5,44,0.00,CLR,,0.00,589.0,WeatherDisplay:10.37,2013-04-20 21:53:00,
2013-04-20 16:58:00,50.3,29.2,30.27,NNE,14,0.4,3.5,44,0.00,CLR,,0.00,534.4,WeatherDisplay:10.37,2013-04-20 21:58:00,
2013-04-20 17:03:00,50.7,29.6,30.27,North,355,1.5,3.5,44,0.00,CLR,,0.00,569.2,WeatherDisplay:10.37,2013-04-20 22:03:00,
2013-04-20 17:08:00,50.7,29.6,30.27,ENE,65,3.1,4.6,44,0.00,CLR,,0.00,575.4,WeatherDisplay:10.37,2013-04-20 22:08:00,
2013-04-20 17:13:00,50.8,29.6,30.27,ENE,76,2.5,3.5,44,0.00,CLR,,0.00,558.0,WeatherDisplay:10.37,2013-04-20 22:13:00,
2013-04-20 17:18:00,50.6,30.6,30.27,NNE,30,1.8,6.9,46,0.00,CLR,,0.00,491.0,WeatherDisplay:10.37,2013-04-20 22:18:00,
2013-04-20 17:23:00,50.2,29.7,30.27,ESE,122,5.7,9.0,45,0.00,CLR,,0.00,477.4,WeatherDisplay:10.37,2013-04-20 22:23:00,
2013-04-20 17:28:00,49.9,29.4,30.27,NE,56,3.9,5.0,45,0.00,CLR,,0.00,381.9,WeatherDisplay:10.37,2013-04-20 22:28:00,
2013-04-20 17:33:00,49.7,29.7,30.27,NE,49,3.8,5.0,46,0.00,CLR,,0.00,355.9,WeatherDisplay:10.37,2013-04-20 22:33:00,
2013-04-20 17:38:00,49.5,29.6,30.27,ESE,116,4.9,9.0,46,0.00,CLR,,0.00,353.4,WeatherDisplay:10.37,2013-04-20 22:38:00,
2013-04-20 17:43:00,49.2,30.3,30.28,NE,48,3.0,4.0,48,0.00,CLR,,0.00,357.1,WeatherDisplay:10.37,2013-04-20 22:43:00,
2013-04-20 17:48:00,49.1,30.2,30.28,ESE,123,4.2,11.5,48,0.00,CLR,,0.00,339.8,WeatherDisplay:10.37,2013-04-20 22:48:00,
2013-04-20 17:53:00,48.9,30.1,30.28,East,96,4.4,8.0,48,0.00,CLR,,0.00,391.8,WeatherDisplay:10.37,2013-04-20 22:53:00,
2013-04-20 17:58:00,48.9,29.5,30.28,East,90,2.5,4.0,47,0.00,CLR,,0.00,307.5,WeatherDisplay:10.37,2013-04-20 22:58:00,
2013-04-20 18:03:00,48.8,30.0,30.28,East,87,1.2,3.5,48,0.00,CLR,,0.00,272.8,WeatherDisplay:10.37,2013-04-20 23:03:00,
2013-04-20 18:08:00,48.9,31.1,30.28,East,92,3.0,4.0,50,0.00,CLR,,0.00,318.7,WeatherDisplay:10.37,2013-04-20 23:08:00,
2013-04-20 18:13:00,48.8,30.0,30.28,East,91,4.0,4.6,48,0.00,CLR,,0.00,293.9,WeatherDisplay:10.37,2013-04-20 23:13:00,
2013-04-20 18:18:00,48.8,31.0,30.28,NE,52,5.7,9.2,50,0.00,CLR,,0.00,290.2,WeatherDisplay:10.37,2013-04-20 23:18:00,
2013-04-20 18:23:00,48.5,29.7,30.28,East,98,3.1,6.0,48,0.00,CLR,,0.00,250.5,WeatherDisplay:10.37,2013-04-20 23:23:00,
2013-04-20 18:28:00,48.3,29.0,30.28,ESE,118,6.1,9.2,47,0.00,CLR,,0.00,215.8,WeatherDisplay:10.37,2013-04-20 23:28:00,
2013-04-20 18:33:00,48.1,29.8,30.28,ESE,102,6.3,10.4,49,0.00,CLR,,0.00,184.8,WeatherDisplay:10.37,2013-04-20 23:33:00,
2013-04-20 18:38:00,48.0,30.2,30.28,ESE,122,2.8,5.8,50,0.00,CLR,,0.00,152.5,WeatherDisplay:10.37,2013-04-20 23:38:00,
2013-04-20 18:43:00,48.0,30.2,30.28,ESE,119,2.3,4.0,50,0.00,CLR,,0.00,117.8,WeatherDisplay:10.37,2013-04-20 23:43:00,
2013-04-20 18:48:00,47.7,28.9,30.28,ENE,74,4.0,6.0,48,0.00,CLR,,0.00,102.9,WeatherDisplay:10.37,2013-04-20 23:48:00,
2013-04-20 18:53:00,47.6,29.9,30.28,ESE,111,4.9,7.0,50,0.00,CLR,,0.00,89.3,WeatherDisplay:10.37,2013-04-20 23:53:00,
2013-04-20 18:58:00,47.4,28.7,30.28,ESE,113,3.8,4.6,48,0.00,OVC,,0.00,65.7,WeatherDisplay:10.37,2013-04-20 23:58:00,
2013-04-20 19:03:00,47.3,29.6,30.29,ESE,115,3.3,4.6,50,0.00,OVC,,0.00,63.2,WeatherDisplay:10.37,2013-04-21 00:03:00,
2013-04-20 19:09:00,47.2,30.0,30.29,ESE,114,2.4,3.5,51,0.00,OVC,,0.00,54.6,WeatherDisplay:10.37,2013-04-21 00:09:00,
2013-04-20 19:14:00,47.2,30.0,30.29,ESE,111,3.5,4.6,51,0.00,OVC,,0.00,45.9,WeatherDisplay:10.37,2013-04-21 00:14:00,
2013-04-20 19:19:00,47.1,29.9,30.29,ESE,102,4.3,5.8,51,0.00,OVC,,0.00,39.7,WeatherDisplay:10.37,2013-04-21 00:19:00,
2013-04-20 19:24:00,46.8,30.6,30.30,ESE,111,2.3,3.5,53,0.00,OVC,,0.00,37.2,WeatherDisplay:10.37,2013-04-21 00:24:00,
2013-04-20 19:29:00,46.5,30.7,30.30,ESE,111,3.1,3.5,54,0.00,OVC,,0.00,31.0,WeatherDisplay:10.37,2013-04-21 00:29:00,
2013-04-20 19:34:00,46.3,31.0,30.30,ESE,113,2.0,3.5,55,0.00,OVC,,0.00,23.6,WeatherDisplay:10.37,2013-04-21 00:34:00,
2013-04-20 19:39:00,46.0,31.2,30.30,ESE,113,2.7,4.0,56,0.00,OVC,,0.00,14.9,WeatherDisplay:10.37,2013-04-21 00:39:00,
2013-04-20 19:44:00,45.7,30.4,30.30,ESE,111,3.1,3.5,55,0.00,OVC,,0.00,8.7,WeatherDisplay:10.37,2013-04-21 00:44:00,
2013-04-20 19:49:00,45.6,29.9,30.31,ESE,106,2.6,3.5,54,0.00,OVC,,0.00,0.0,WeatherDisplay:10.37,2013-04-21 00:49:00,
2013-04-20 19:54:00,45.4,30.2,30.31,ESE,102,3.7,4.6,55,0.00,OVC,,0.00,0.0,WeatherDisplay:10.37,2013-04-21 00:54:00,
2013-04-20 19:59:00,45.1,30.3,30.31,ESE,103,2.4,3.5,56,0.00,OVC,,0.00,0.0,WeatherDisplay:10.37,2013-04-21 00:59:00,
2013-04-20 20:04:00,45.0,30.2,30.31,ESE,104,2.3,3.5,56,0.00,CLR,,0.00,0.0,WeatherDisplay:10.37,2013-04-21 01:04:00,
2013-04-20 20:09:00,44.7,30.4,30.31,ESE,103,2.6,3.5,57,0.00,CLR,,0.00,0.0,WeatherDisplay:10.37,2013-04-21 01:09:00,
2013-04-20 20:14:00,44.5,30.6,30.32,ESE,105,2.6,3.5,58,0.00,CLR,,0.00,0.0,WeatherDisplay:10.37,2013-04-21 01:14:00,
2013-04-20 20:19:00,44.3,30.0,30.32,ESE,103,3.2,4.6,57,0.00,CLR,,0.00,0.0,WeatherDisplay:10.37,2013-04-21 01:19:00,
2013-04-20 20:24:00,44.2,29.9,30.32,ESE,105,2.7,4.0,57,0.00,CLR,,0.00,0.0,WeatherDisplay:10.37,2013-04-21 01:24:00,
2013-04-20 20:29:00,44.0,30.2,30.32,ESE,105,1.8,3.5,58,0.00,CLR,,0.00,0.0,WeatherDisplay:10.37,2013-04-21 01:29:00,
2013-04-20 20:34:00,43.8,30.4,30.33,ESE,103,2.4,3.5,59,0.00,CLR,,0.00,0.0,WeatherDisplay:10.37,2013-04-21 01:34:00,
2013-04-20 20:39:00,43.6,30.2,30.33,ESE,103,2.3,3.5,59,0.00,CLR,,0.00,0.0,WeatherDisplay:10.37,2013-04-21 01:39:00,
2013-04-20 20:44:00,43.3,30.3,30.33,ESE,103,1.7,3.5,60,0.00,CLR,,0.00,0.0,WeatherDisplay:10.37,2013-04-21 01:44:00,
2013-04-20 20:49:00,43.1,30.6,30.33,ESE,105,2.2,3.5,61,0.00,CLR,,0.00,0.0,WeatherDisplay:10.37,2013-04-21 01:49:00,
2013-04-20 20:54:00,42.9,30.8,30.33,ESE,105,1.7,2.3,62,0.00,CLR,,0.00,0.0,WeatherDisplay:10.37,2013-04-21 01:54:00,
2013-04-20 20:59:00,42.7,30.6,30.33,ESE,105,1.5,2.3,62,0.00,CLR,,0.00,0.0,WeatherDisplay:10.37,2013-04-21 01:59:00,
2013-04-20 21:04:00,42.5,30.8,30.33,ESE,105,0.9,2.3,63,0.00,CLR,,0.00,0.0,WeatherDisplay:10.37,2013-04-21 02:04:00,
2013-04-20 21:09:00,42.3,31.0,30.34,ESE,105,2.7,3.5,64,0.00,CLR,,0.00,0.0,WeatherDisplay:10.37,2013-04-21 02:09:00,
2013-04-20 21:14:00,42.1,30.8,30.33,ESE,103,2.2,3.5,64,0.00,CLR,,0.00,0.0,WeatherDisplay:10.37,2013-04-21 02:14:00,
2013-04-20 21:19:00,42.0,30.7,30.34,ESE,103,2.1,3.5,64,0.00,CLR,,0.00,0.0,WeatherDisplay:10.37,2013-04-21 02:19:00,
2013-04-20 21:24:00,41.9,31.0,30.34,ESE,102,2.7,5.0,65,0.00,CLR,,0.00,0.0,WeatherDisplay:10.37,2013-04-21 02:24:00,
2013-04-20 21:29:00,41.8,30.9,30.34,East,101,3.1,5.0,65,0.00,CLR,,0.00,0.0,WeatherDisplay:10.37,2013-04-21 02:29:00,
2013-04-20 21:34:00,41.7,30.8,30.34,ESE,103,3.0,6.0,65,0.00,CLR,,0.00,0.0,WeatherDisplay:10.37,2013-04-21 02:34:00,
2013-04-20 21:39:00,41.5,30.6,30.34,ESE,104,2.5,3.5,65,0.00,CLR,,0.00,0.0,WeatherDisplay:10.37,2013-04-21 02:39:00,
2013-04-20 21:44:00,41.4,30.9,30.34,ESE,107,3.8,5.8,66,0.00,CLR,,0.00,0.0,WeatherDisplay:10.37,2013-04-21 02:44:00,
2013-04-20 21:49:00,41.3,31.2,30.33,ESE,109,2.9,5.0,67,0.00,CLR,,0.00,0.0,WeatherDisplay:10.37,2013-04-21 02:49:00,
2013-04-20 21:54:00,41.1,31.3,30.33,East,90,4.7,7.0,68,0.00,CLR,,0.00,0.0,WeatherDisplay:10.37,2013-04-21 02:54:00,
2013-04-20 21:59:00,41.1,31.7,30.33,ESE,110,2.6,5.0,69,0.00,CLR,,0.00,0.0,WeatherDisplay:10.37,2013-04-21 02:59:00,
2013-04-20 22:04:00,41.1,31.7,30.33,ESE,123,4.2,9.2,69,0.00,CLR,,0.00,0.0,WeatherDisplay:10.37,2013-04-21 03:04:00,
2013-04-20 22:09:00,41.1,31.7,30.34,ESE,112,4.1,6.0,69,0.00,CLR,,0.00,0.0,WeatherDisplay:10.37,2013-04-21 03:09:00,
2013-04-20 22:14:00,41.0,32.0,30.34,SE,130,5.0,9.0,70,0.00,CLR,,0.00,0.0,WeatherDisplay:10.37,2013-04-21 03:14:00,
2013-04-20 22:19:00,40.8,31.8,30.34,SE,126,2.6,6.9,70,0.00,CLR,,0.00,0.0,WeatherDisplay:10.37,2013-04-21 03:19:00,
2013-04-20 22:24:00,40.7,31.7,30.34,ESE,114,4.0,5.0,70,0.00,CLR,,0.00,0.0,WeatherDisplay:10.37,2013-04-21 03:24:00,
2013-04-20 22:29:00,40.6,31.6,30.34,ESE,113,2.2,3.5,70,0.00,CLR,,0.00,0.0,WeatherDisplay:10.37,2013-04-21 03:29:00,
2013-04-20 22:34:00,40.5,31.5,30.34,ESE,116,4.0,6.0,70,0.00,CLR,,0.00,0.0,WeatherDisplay:10.37,2013-04-21 03:34:00,
2013-04-20 22:39:00,40.4,31.4,30.35,ESE,119,3.6,5.0,70,0.00,CLR,,0.00,0.0,WeatherDisplay:10.37,2013-04-21 03:39:00,
2013-04-20 22:44:00,40.3,31.3,30.35,ESE,119,2.1,3.5,70,0.00,CLR,,0.00,0.0,WeatherDisplay:10.37,2013-04-21 03:44:00,
2013-04-20 22:49:00,40.1,31.1,30.35,ESE,119,2.9,4.0,70,0.00,CLR,,0.00,0.0,WeatherDisplay:10.37,2013-04-21 03:49:00,
2013-04-20 22:54:00,40.1,31.4,30.35,ESE,119,2.1,3.5,71,0.00,CLR,,0.00,0.0,WeatherDisplay:10.37,2013-04-21 03:54:00,
2013-04-20 22:59:00,40.0,31.4,30.35,ESE,119,2.8,3.5,71,0.00,CLR,,0.00,0.0,WeatherDisplay:10.37,2013-04-21 03:59:00,
2013-04-20 23:01:00,39.9,31.3,30.35,ESE,119,3.2,4.6,71,0.00,CLR,,0.00,0.0,WeatherDisplay:10.37,2013-04-21 04:01:00,
2013-04-20 23:06:00,39.8,31.2,30.35,ESE,119,2.9,4.6,71,0.00,CLR,,0.00,0.0,WeatherDisplay:10.37,2013-04-21 04:06:00,
2013-04-20 23:11:00,39.7,31.4,30.35,ESE,119,3.2,3.5,72,0.00,CLR,,0.00,0.0,WeatherDisplay:10.37,2013-04-21 04:11:00,
2013-04-20 23:16:00,39.6,31.3,30.35,ESE,119,3.2,4.6,72,0.00,CLR,,0.00,0.0,WeatherDisplay:10.37,2013-04-21 04:16:00,
2013-04-20 23:21:00,39.5,31.2,30.35,ESE,119,3.2,5.8,72,0.00,CLR,,0.00,0.0,WeatherDisplay:10.37,2013-04-21 04:21:00,
2013-04-20 23:26:00,39.4,31.1,30.35,ESE,117,2.5,4.6,72,0.00,CLR,,0.00,0.0,WeatherDisplay:10.37,2013-04-21 04:26:00,
2013-04-20 23:31:00,39.3,31.0,30.35,SE,133,2.9,5.0,72,0.00,CLR,,0.00,0.0,WeatherDisplay:10.37,2013-04-21 04:31:00,
2013-04-20 23:36:00,39.2,30.9,30.35,ESE,122,3.1,5.0,72,0.00,CLR,,0.00,0.0,WeatherDisplay:10.37,2013-04-21 04:36:00,
2013-04-20 23:41:00,39.1,31.2,30.35,ESE,121,3.0,4.6,73,0.00,CLR,,0.00,0.0,WeatherDisplay:10.37,2013-04-21 04:41:00,
2013-04-20 23:46:00,38.9,31.0,30.35,SE,126,3.5,5.8,73,0.00,CLR,,0.00,0.0,WeatherDisplay:10.37,2013-04-21 04:46:00,
2013-04-20 23:51:00,38.8,31.2,30.35,ESE,123,3.8,8.1,74,0.00,CLR,,0.00,0.0,WeatherDisplay:10.37,2013-04-21 04:51:00,
2013-04-20 23:56:00,38.7,31.1,30.35,ESE,117,3.8,5.0,74,0.00,CLR,,0.00,0.0,WeatherDisplay:10.37,2013-04-21 04:56:00,